Vancouver, Canada
Current Conditions -  °F | °C
As of 5:00 PM on Wednesday 22 Oct 2014 (Local Time) from CYVR Reporting Station
Light Rain Light Rain  
Wind Chill: 57°   Ceiling: 2500
Heat Index: 57°   Visibility: 15mi
Dew Point: 54°   Wind: 12mph
Humidity: 88%   Direction: 130°SE
Pressure: 29.56"   Gusts: NA
Location:  49.26°N, 123.11°W
Report Text: CYVR 230000Z 13010KT 15SM -RA FEW008 FEW018 BKN025 OVC064 14/12 A2956 RMK CF1CU1SC4SC2 SLP011 DENSITY ALT 200FT
Loading
Personal Weather Stations






























Interactive Weather Map
Tropical Storm Tracking
New forecast layout! Learn more

10-Day Weather Forecast

Advertisements
Track Severe Weather on mobile